Saint Anthony, Minnesota
Current Conditions -  °F | °C
As of 5:05 PM on Sunday 21 Dec 2014 (Local Time) from KMIC Reporting Station
Haze Haze  
Wind Chill: 30°   Ceiling: 400
Heat Index: 37°   Visibility: 2.5mi
Dew Point: 35°   Wind: 9mph
Humidity: 93%   Direction: 160°SSE
Pressure: 29.72"   Gusts: NA
Location:  45.0516°N, 93.2549°W
Report Text: KMIC 212305Z 16008KT 2 1/2SM BR OVC004 03/02 A2972 RMK AO2 T00280017
Loading
Personal Weather Stations






























Interactive Weather Map New forecast layout! Learn more

10-Day Weather Forecast

Advertisements
Track Severe Weather on mobile